aviador You're here:

HECA Decoded Metar

CAIRO in EGYPT
Report Time2017-11-22 05:00:00
UTC Time2017-11-22 05:23:24
Flight Rules mvfr MVFR
Wind220° at 05 kt
W.Decomp.*RWY 23: 4.9 kt HW 1.2 kt LCW
W.Rank220° ranks 26
Current wind is below 220° avg. (8.2)
Visibility9999 m
Phenomena:N/A
Clouds:Broken 025 Hf
Expected CloudBase > 2,800 ft AGL from Temp-Dew spread
Ceiling2,500 ft
Temp16°C (ISA +1)
Dew Point09°C (63% RH)
AAT14.0°C
QNH1019 hPa
Density Alt371 ft
Elevation243 ft
Report Wrong Elevation
Raw Report
HECA 220500Z 22005KT 9999 BKN025 16/09 Q1019=

Extra information for HECA:More info

Metar Taf Metar & Taf Last 4 Metars F.Rules Stats Wind Profile Meteogram Temp Stats Airport Information Weather charts Add Link Nearby VenuesMetar ALERT Operation Metar Decoded Social comments